createdAt,value
2022-08-17T00:00:43.625Z,25.90
2022-08-17T00:03:09.983Z,25.80
2022-08-17T00:05:45.092Z,25.80
2022-08-17T00:08:14.266Z,25.80
2022-08-17T00:10:42.804Z,25.80
2022-08-17T00:13:14.272Z,25.80
2022-08-17T00:15:43.994Z,25.80
2022-08-17T00:19:06.063Z,25.80
2022-08-17T00:21:02.910Z,25.70
2022-08-17T00:23:31.607Z,25.70
2022-08-17T00:26:00.666Z,25.70
2022-08-17T00:28:29.187Z,25.70
2022-08-17T00:31:01.639Z,25.70
2022-08-17T00:33:32.720Z,25.60
2022-08-17T00:36:03.274Z,25.60
2022-08-17T00:38:31.583Z,25.60
2022-08-17T00:41:02.436Z,25.60
2022-08-17T00:43:33.990Z,25.50
2022-08-17T00:46:04.776Z,25.50
2022-08-17T00:48:33.951Z,25.50
2022-08-17T00:51:09.460Z,25.50
2022-08-17T00:53:41.940Z,25.40
2022-08-17T00:56:15.877Z,25.40
2022-08-17T00:58:44.131Z,25.40
2022-08-17T01:01:21.388Z,25.30
2022-08-17T01:03:52.580Z,25.30
2022-08-17T01:06:27.764Z,25.20
2022-08-17T01:08:59.405Z,25.20
2022-08-17T01:11:28.742Z,25.20
2022-08-17T01:13:56.890Z,25.20
2022-08-17T01:16:27.728Z,25.20
2022-08-17T01:18:59.391Z,25.20
2022-08-17T01:21:37.423Z,25.10
2022-08-17T01:24:07.864Z,25.10
2022-08-17T01:26:37.336Z,25.00
2022-08-17T01:29:07.404Z,25.00
2022-08-17T01:31:38.846Z,25.00
2022-08-17T01:34:11.498Z,24.90
2022-08-17T01:36:42.983Z,24.90
2022-08-17T01:39:19.354Z,24.90
2022-08-17T01:41:49.684Z,24.80
2022-08-17T01:44:18.035Z,24.80
2022-08-17T01:46:46.253Z,24.80
2022-08-17T01:49:14.619Z,24.80
2022-08-17T01:51:42.810Z,24.80
2022-08-17T01:54:15.769Z,24.70
2022-08-17T01:56:47.336Z,24.70
2022-08-17T01:59:17.095Z,24.70
2022-08-17T02:01:46.274Z,24.60
2022-08-17T02:04:15.397Z,24.60
2022-08-17T02:06:52.568Z,24.60
2022-08-17T02:09:25.810Z,24.50
2022-08-17T02:11:54.843Z,24.40
2022-08-17T02:14:25.815Z,24.50
2022-08-17T02:16:56.117Z,24.40
2022-08-17T02:19:24.526Z,24.40
2022-08-17T02:21:55.577Z,24.40
2022-08-17T02:24:58.707Z,24.30
2022-08-17T02:27:16.100Z,24.30
2022-08-17T02:29:44.192Z,24.30
2022-08-17T02:32:27.262Z,24.30
2022-08-17T02:34:56.875Z,24.30
2022-08-17T02:37:25.640Z,24.30
2022-08-17T02:39:57.077Z,24.30
2022-08-17T02:42:28.618Z,24.30
2022-08-17T02:44:56.812Z,24.20
2022-08-17T02:47:25.635Z,24.20
2022-08-17T02:49:55.993Z,24.20
2022-08-17T02:52:42.926Z,24.20
2022-08-17T02:55:17.005Z,24.10
2022-08-17T02:57:45.798Z,24.10
2022-08-17T03:00:17.209Z,24.10
2022-08-17T03:02:46.225Z,24.10
2022-08-17T03:05:16.752Z,24.00
2022-08-17T03:07:45.024Z,24.00
2022-08-17T03:10:14.726Z,23.90
2022-08-17T03:12:43.493Z,23.90
2022-08-17T03:15:14.465Z,23.80
2022-08-17T03:17:42.667Z,23.80
2022-08-17T03:20:11.860Z,23.80
2022-08-17T03:22:41.978Z,23.80
2022-08-17T03:25:19.667Z,23.80
2022-08-17T03:27:51.490Z,23.70
2022-08-17T03:30:21.184Z,23.70
2022-08-17T03:32:51.190Z,23.70
2022-08-17T03:35:21.944Z,23.70
2022-08-17T03:38:00.029Z,23.70
2022-08-17T03:40:34.616Z,23.70
2022-08-17T03:43:20.644Z,23.60
2022-08-17T03:46:11.025Z,23.60
2022-08-17T03:49:12.103Z,23.60
2022-08-17T03:51:57.645Z,23.60
2022-08-17T03:54:42.984Z,23.60
2022-08-17T03:57:13.162Z,23.50
2022-08-17T03:59:41.648Z,23.50
2022-08-17T04:02:12.846Z,23.50
2022-08-17T04:04:41.151Z,23.50
2022-08-17T04:07:09.681Z,23.50
2022-08-17T04:09:37.925Z,23.50
2022-08-17T04:12:07.173Z,23.50
2022-08-17T04:14:53.783Z,23.50
2022-08-17T04:17:24.273Z,23.50
2022-08-17T04:19:52.518Z,23.50
2022-08-17T04:22:30.753Z,23.50
2022-08-17T04:24:59.767Z,23.50
2022-08-17T04:27:28.215Z,23.50
2022-08-17T04:29:58.512Z,23.50
2022-08-17T04:33:02.204Z,23.50
2022-08-17T04:35:19.962Z,23.50
2022-08-17T04:37:48.460Z,23.50
2022-08-17T04:40:34.693Z,23.50
2022-08-17T04:43:05.108Z,23.40
2022-08-17T04:45:34.971Z,23.50
2022-08-17T04:48:03.245Z,23.50
2022-08-17T04:50:31.404Z,23.50
2022-08-17T04:52:59.820Z,23.50
2022-08-17T04:55:28.086Z,23.50
2022-08-17T04:57:56.616Z,23.60
2022-08-17T05:00:25.940Z,23.60
2022-08-17T05:02:57.312Z,23.60
2022-08-17T05:05:28.220Z,23.70
2022-08-17T05:07:58.829Z,23.70
2022-08-17T05:10:29.985Z,23.70
2022-08-17T05:13:02.213Z,23.80
2022-08-17T05:15:33.103Z,23.80
2022-08-17T05:18:07.062Z,23.80
2022-08-17T05:20:36.297Z,23.90
2022-08-17T05:23:07.159Z,23.90
2022-08-17T05:25:38.108Z,23.90
2022-08-17T05:28:08.179Z,24.00
2022-08-17T05:30:37.217Z,24.00
2022-08-17T05:33:08.811Z,24.10
2022-08-17T05:35:39.703Z,24.10
2022-08-17T05:38:08.367Z,24.20
2022-08-17T05:40:37.436Z,24.30
2022-08-17T05:43:08.028Z,24.30
2022-08-17T05:45:54.687Z,24.40
2022-08-17T05:48:39.339Z,24.50
2022-08-17T05:51:50.962Z,24.50
2022-08-17T05:54:39.410Z,24.60
2022-08-17T05:57:25.978Z,24.70
2022-08-17T06:00:01.964Z,24.70
2022-08-17T06:02:47.497Z,24.70
2022-08-17T06:05:25.539Z,24.90
2022-08-17T06:08:01.230Z,24.90
2022-08-17T06:10:35.807Z,25.00
2022-08-17T06:13:13.496Z,25.00
2022-08-17T06:15:55.245Z,25.10
2022-08-17T06:18:28.057Z,25.20
2022-08-17T06:21:02.470Z,25.30
2022-08-17T06:23:35.828Z,25.40
2022-08-17T06:26:11.733Z,25.40
2022-08-17T06:28:44.805Z,25.50
2022-08-17T06:31:19.991Z,25.60
2022-08-17T06:33:48.180Z,25.70
2022-08-17T06:36:42.400Z,25.70
2022-08-17T06:39:29.331Z,25.80
2022-08-17T06:42:10.263Z,25.90
2022-08-17T06:45:08.173Z,26.00
2022-08-17T06:47:41.384Z,26.00
2022-08-17T06:50:19.335Z,26.10
2022-08-17T06:52:56.241Z,26.10
2022-08-17T06:55:35.832Z,26.20
2022-08-17T06:58:15.935Z,26.30
2022-08-17T07:00:48.104Z,26.40
2022-08-17T07:03:27.565Z,26.50
2022-08-17T07:06:00.099Z,26.50
2022-08-17T07:08:39.959Z,26.60
2022-08-17T07:11:13.064Z,26.70
2022-08-17T07:13:51.237Z,26.70
2022-08-17T07:16:25.477Z,26.80
2022-08-17T07:18:55.506Z,26.90
2022-08-17T07:21:40.894Z,26.90
2022-08-17T07:24:29.237Z,27.00
2022-08-17T07:27:14.849Z,27.00
2022-08-17T07:29:47.978Z,27.10
2022-08-17T07:32:19.527Z,27.20
2022-08-17T07:35:11.853Z,27.30
2022-08-17T07:37:41.648Z,27.40
2022-08-17T07:40:23.794Z,27.50
2022-08-17T07:43:21.810Z,27.50
2022-08-17T07:46:18.909Z,27.60
2022-08-17T07:48:50.740Z,27.80
2022-08-17T07:51:25.175Z,27.90
2022-08-17T07:54:04.778Z,28.00
2022-08-17T07:56:47.125Z,28.10
2022-08-17T07:59:23.740Z,28.10
2022-08-17T08:02:14.391Z,28.20
2022-08-17T08:05:00.581Z,28.30
2022-08-17T08:07:38.444Z,28.40
2022-08-17T08:10:10.950Z,28.50
2022-08-17T08:12:42.802Z,28.60
2022-08-17T08:15:17.824Z,28.60
2022-08-17T08:17:52.936Z,28.70
2022-08-17T08:20:42.392Z,28.80
2022-08-17T08:23:36.899Z,29.00
2022-08-17T08:26:18.730Z,29.10
2022-08-17T08:29:05.845Z,29.20
2022-08-17T08:31:48.801Z,29.30
2022-08-17T08:35:00.538Z,29.40
2022-08-17T08:37:32.592Z,29.50
2022-08-17T08:40:11.741Z,29.60
2022-08-17T08:42:50.043Z,29.70
2022-08-17T08:45:26.664Z,29.80
2022-08-17T08:48:23.099Z,29.90
2022-08-17T08:51:01.805Z,30.00
2022-08-17T08:53:42.142Z,30.10
2022-08-17T08:56:17.325Z,30.20
2022-08-17T08:58:52.883Z,30.40
2022-08-17T09:01:28.785Z,30.50
2022-08-17T09:05:02.756Z,30.70
2022-08-17T09:07:36.537Z,30.80
2022-08-17T09:10:13.908Z,31.00
2022-08-17T09:12:49.727Z,31.10
2022-08-17T09:15:21.871Z,31.20
2022-08-17T09:18:14.896Z,31.30
2022-08-17T09:20:52.265Z,31.30
2022-08-17T09:23:32.428Z,31.50
2022-08-17T09:26:05.240Z,31.60
2022-08-17T09:28:37.842Z,31.80
2022-08-17T09:31:10.216Z,32.00
2022-08-17T09:33:46.577Z,32.10
2022-08-17T09:36:21.680Z,32.30
2022-08-17T09:39:01.001Z,32.50
2022-08-17T09:41:35.818Z,32.60
2022-08-17T09:44:22.928Z,32.90
2022-08-17T09:46:56.931Z,33.00
2022-08-17T09:49:31.534Z,33.30
2022-08-17T09:52:03.658Z,33.40
2022-08-17T09:54:41.114Z,33.60
2022-08-17T09:57:31.805Z,33.80
2022-08-17T10:00:23.748Z,33.90
2022-08-17T10:03:16.368Z,34.10
2022-08-17T10:05:56.478Z,34.20
2022-08-17T10:08:40.970Z,34.50
2022-08-17T10:11:22.397Z,34.60
2022-08-17T10:14:36.997Z,34.80
2022-08-17T10:17:04.553Z,34.90
2022-08-17T10:19:39.164Z,35.00
2022-08-17T10:22:38.649Z,35.20
2022-08-17T10:25:42.528Z,35.40
2022-08-17T10:28:20.277Z,35.70
2022-08-17T10:31:05.260Z,36.00
2022-08-17T10:33:52.833Z,36.30
2022-08-17T10:36:25.755Z,36.60
2022-08-17T10:39:08.494Z,36.80
2022-08-17T10:41:42.505Z,37.10
2022-08-17T10:44:38.574Z,37.40
2022-08-17T10:47:08.843Z,37.50
2022-08-17T10:49:38.565Z,37.90
2022-08-17T10:52:49.321Z,38.10
2022-08-17T10:55:20.642Z,38.40
2022-08-17T10:57:51.273Z,38.60
2022-08-17T11:01:02.318Z,38.70
2022-08-17T11:03:32.948Z,38.90
2022-08-17T11:06:15.261Z,39.00
2022-08-17T11:09:07.997Z,39.30
2022-08-17T11:11:53.557Z,39.60
2022-08-17T11:14:33.537Z,39.90
2022-08-17T11:17:25.658Z,40.10
2022-08-17T11:20:20.787Z,40.40
2022-08-17T11:23:08.488Z,40.60
2022-08-17T11:25:41.100Z,40.90
2022-08-17T11:28:18.024Z,41.10
2022-08-17T11:30:52.189Z,41.40
2022-08-17T11:33:59.288Z,41.60
2022-08-17T11:36:56.026Z,41.80
2022-08-17T11:39:45.207Z,42.10
2022-08-17T11:42:32.541Z,42.20
2022-08-17T11:48:24.228Z,42.50
2022-08-17T11:51:10.882Z,42.70
2022-08-17T11:54:32.825Z,42.80
2022-08-17T11:56:56.733Z,43.10
2022-08-17T11:59:58.444Z,43.20
2022-08-17T12:02:47.389Z,43.40
2022-08-17T12:08:24.094Z,43.70
2022-08-17T12:13:30.472Z,44.00
2022-08-17T12:16:07.340Z,44.00
2022-08-17T12:18:39.814Z,44.00
2022-08-17T12:21:25.948Z,44.00
2022-08-17T12:23:59.651Z,44.00
2022-08-17T12:26:31.816Z,44.00
2022-08-17T12:29:02.849Z,43.70
2022-08-17T12:31:35.757Z,43.30
2022-08-17T12:34:06.057Z,42.90
2022-08-17T12:36:34.799Z,42.60
